Gettysburg, SD (57442)

18:16 CST le 10 décembre 2016 (GMT -0600)
Dakota Street | | Change Station

Alt. 2077 ft 45.01 °N, 99.97 °W | Updated 9 seconds ago

Neige
Neige
4.8 ° F
Paraît -11 ° F
N
11.9
Vent Variable Vent de Est
Gusts 15.0 mph

Aujourd'hui
Haut(e) -- | Bas -- ° F
--% Risque de précip.
Hier
Haut(e) -- | Bas -- ° F
Precip. -- pouce
Pression 29.96 pouce
Visibilité 4.0 Miles terrestres
Nuages Nuageux 2300 ft
Couvert 11000 ft
Refroidissement éolien -11 ° F
Point de rosée -5 ° F
Humidité 63%
Précipitations 0.00 pouce
Profondeur de la couche neigeuse Non disponible.
8:07 AM 4:58 PM
Lune gibbeuse croissante, 87% visible
SPECI KMBG 102359Z AUTO 08008KT 4SM -SN BKN023 OVC110 M15/M19 A2996 RMK AO2 SNB59 P0000 T11501194
Pression 29.96 pouce
Visibilité 4.0 Miles terrestres
Nuages Nuageux 2300 ft
Couvert 11000 ft
Refroidissement éolien -11 ° F
Point de rosée -5 ° F
Humidité 63%
Précipitations 0.00 pouce
Profondeur de la couche neigeuse Non disponible.
8:07 AM 4:58 PM
Lune gibbeuse croissante, 87% visible
SPECI KMBG 102359Z AUTO 08008KT 4SM -SN BKN023 OVC110 M15/M19 A2996 RMK AO2 SNB59 P0000 T11501194

10-Day Weather Forecast

Almanac

Astronomie

Dec. 10, 2016 Lever Coucher
Temps réel
Crépuscule civil
Crépuscule nautique
Crépuscule astronomique
Lune
Durée de lumière visible
Longueur du jour
Tomorrow will be .
, % of the Moon is Illuminated

Extrêmes aujourd'hui

State Highs State Lows

Community

WunderPhotos

Upload Photos

1,956,682 Photos téléchargées !

WunderBlog® & News

Nearby

Qualité de l'air

  Qualité de l'air Indice de la qualité de l'air Polluant
Not available.

Épaisseur de neige

Station Depth Altitude

Activité sismique

Ville Distance Mag. Time & Date
Minimum magnitude displayed is 2.5.

Températures des eaux côtières

Lieu Température

Stations

Stations météo à proximité

Emplacement de la station Température Refroidissement éolien Point de rosée Humidité Vent Precip. Alt. Mise à jour Type
                   

Watches & Warnings

There are currently no watches in effect.